Time;durP1;ratioP1;P1;durP2;ratioP2;P2;SDS_P1;SDS_P2;PMS_P1;PMS_P2;Temp;Humidity;BMP_temperature;BMP_pressure;BME280_temperature;BME280_humidity;BME280_pressure;Samples;Min_cycle;Max_cycle;Signal;HPM_P1;HPM_P2
2021/09/13 00:02:08;;;;;;;17.50;13.60;;;;;;;24.68;50.07;99515.07;1769857;78;20986;-64
2021/09/13 00:04:34;;;;;;;20.97;14.90;;;;;;;24.68;49.95;99520.50;1758599;78;21061;-64
2021/09/13 00:07:00;;;;;;;16.75;15.00;;;;;;;24.67;49.91;99516.17;1775593;78;21278;-64
2021/09/13 00:09:27;;;;;;;20.50;14.85;;;;;;;24.67;49.74;99519.44;1772033;80;21482;-64
2021/09/13 00:11:54;;;;;;;16.23;14.53;;;;;;;24.66;49.67;99513.17;1768366;78;21131;-67
2021/09/13 00:14:23;;;;;;;16.73;14.40;;;;;;;24.66;49.60;99514.52;1764121;78;21068;-63
2021/09/13 00:16:50;;;;;;;17.12;15.23;;;;;;;24.65;49.46;99512.91;1784157;78;21044;-64
2021/09/13 00:19:23;;;;;;;16.73;15.03;;;;;;;24.65;49.29;99510.19;1784365;78;21077;-64
2021/09/13 00:21:53;;;;;;;17.02;15.05;;;;;;;24.64;49.10;99514.53;1770158;80;20994;-64
2021/09/13 00:24:23;;;;;;;15.32;13.68;;;;;;;24.63;49.12;99511.55;1774374;78;21141;-65
2021/09/13 00:26:52;;;;;;;16.17;14.53;;;;;;;24.63;48.94;99512.91;1787768;78;21057;-65
2021/09/13 00:29:21;;;;;;;15.65;14.03;;;;;;;24.61;48.90;99513.17;1773805;79;21289;-65
2021/09/13 00:31:49;;;;;;;15.98;14.33;;;;;;;24.61;48.77;99510.45;1780225;80;21056;-67
2021/09/13 00:34:18;;;;;;;16.70;14.95;;;;;;;24.61;48.69;99506.90;1759778;80;21022;-64
2021/09/13 00:36:48;;;;;;;15.63;14.00;;;;;;;24.61;48.56;99505.54;1777287;80;21081;-66
2021/09/13 00:39:17;;;;;;;16.50;14.80;;;;;;;24.61;48.58;99507.73;1777497;78;21134;-65
2021/09/13 00:41:45;;;;;;;17.25;15.50;;;;;;;24.60;48.49;99508.00;1773882;78;21478;-63
2021/09/13 00:44:14;;;;;;;18.07;15.70;;;;;;;24.59;48.46;99509.06;1782973;78;21056;-63
2021/09/13 00:46:41;;;;;;;18.12;14.58;;;;;;;24.59;48.33;99503.64;1773141;80;21072;-63
2021/09/13 00:49:09;;;;;;;15.43;13.90;;;;;;;24.58;48.28;99499.30;1762222;79;21030;-63
2021/09/13 00:51:36;;;;;;;17.17;14.60;;;;;;;24.59;48.23;99504.99;1751618;80;21041;-63
2021/09/13 00:54:03;;;;;;;16.90;15.10;;;;;;;24.57;48.18;99499.85;1751765;80;21017;-63
2021/09/13 00:56:31;;;;;;;14.83;13.05;;;;;;;24.57;48.18;99504.45;1768785;80;21074;-63
2021/09/13 00:58:59;;;;;;;15.40;13.90;;;;;;;24.57;48.13;99500.38;1771198;80;21096;-65
2021/09/13 01:01:26;;;;;;;15.65;14.05;;;;;;;24.56;48.10;99494.69;1771543;80;21575;-66
2021/09/13 01:03:53;;;;;;;16.65;14.25;;;;;;;24.56;48.09;99491.97;1759410;80;21025;-64
2021/09/13 01:06:19;;;;;;;15.78;14.23;;;;;;;24.56;48.04;99490.06;1760230;81;21360;-64
2021/09/13 01:08:47;;;;;;;19.40;15.10;;;;;;;24.57;47.98;99492.22;1753694;81;21030;-63
2021/09/13 01:11:15;;;;;;;15.45;13.80;;;;;;;24.55;47.99;99489.80;1729483;81;21049;-64
2021/09/13 01:13:42;;;;;;;15.18;13.50;;;;;;;24.54;47.93;99488.16;1753815;81;21113;-63
2021/09/13 01:16:08;;;;;;;15.50;13.93;;;;;;;24.54;47.90;99494.94;1752227;80;21631;-64
2021/09/13 01:18:36;;;;;;;15.03;13.43;;;;;;;24.54;47.91;99493.59;1755821;80;20991;-64
2021/09/13 01:22:02;;;;;;;14.87;13.48;;;;;;;24.58;47.92;99492.52;1800916;78;22685;-64
2021/09/13 01:24:32;;;;;;;14.78;13.10;;;;;;;24.54;47.89;99490.87;1791786;79;20942;-64
2021/09/13 01:27:03;;;;;;;15.13;12.73;;;;;;;24.52;47.82;99493.04;1750764;80;21965;-63
2021/09/13 01:29:32;;;;;;;15.15;13.58;;;;;;;24.52;47.86;99497.11;1783965;79;20942;-63
2021/09/13 01:31:59;;;;;;;15.03;13.32;;;;;;;24.52;47.86;99497.11;1780686;80;21093;-63
2021/09/13 01:34:26;;;;;;;15.05;13.15;;;;;;;24.51;47.85;99494.11;1784846;80;21370;-63
2021/09/13 01:36:58;;;;;;;13.83;11.95;;;;;;;24.50;47.87;99494.62;1785082;80;20937;-64
2021/09/13 01:39:25;;;;;;;15.13;13.00;;;;;;;24.51;47.88;99492.75;1747211;80;21147;-64
2021/09/13 01:41:53;;;;;;;18.77;13.98;;;;;;;24.49;47.87;99495.72;1763887;79;20919;-63
2021/09/13 01:44:21;;;;;;;14.35;12.95;;;;;;;24.49;47.89;99493.53;1772161;80;20997;-64
2021/09/13 01:46:48;;;;;;;15.48;13.88;;;;;;;24.48;47.79;99493.27;1772922;80;21054;-64
2021/09/13 01:49:19;;;;;;;15.95;12.88;;;;;;;24.48;47.76;99494.62;1763864;80;22313;-64
2021/09/13 01:51:45;;;;;;;14.50;12.90;;;;;;;24.47;47.76;99503.32;1771068;80;21291;-65
2021/09/13 01:54:15;;;;;;;15.83;12.80;;;;;;;24.45;47.73;99498.67;1773461;79;21025;-65
2021/09/13 01:56:44;;;;;;;14.30;12.50;;;;;;;24.44;47.60;99502.48;1781254;80;21179;-62
2021/09/13 01:59:12;;;;;;;13.65;12.28;;;;;;;24.45;47.58;99504.64;1780496;79;21002;-63
2021/09/13 02:01:39;;;;;;;15.32;13.70;;;;;;;24.43;47.63;99500.02;1757117;80;21541;-65
2021/09/13 02:04:07;;;;;;;14.78;13.05;;;;;;;24.43;47.60;99502.19;1772776;80;21138;-64
2021/09/13 02:06:33;;;;;;;14.70;13.13;;;;;;;24.41;47.58;99494.05;1771715;80;21037;-64
2021/09/13 02:09:00;;;;;;;14.73;12.68;;;;;;;24.40;47.52;99489.16;1781611;80;21686;-64
2021/09/13 02:11:27;;;;;;;16.73;13.05;;;;;;;24.39;47.40;99491.59;1764022;80;21329;-63
2021/09/13 02:13:54;;;;;;;14.73;12.07;;;;;;;24.39;47.39;99494.30;1748315;80;21080;-63
2021/09/13 02:16:22;;;;;;;13.80;12.35;;;;;;;24.36;47.38;99486.70;1773682;79;21840;-63
2021/09/13 02:18:50;;;;;;;13.43;12.03;;;;;;;24.37;47.32;99486.97;1759330;80;21026;-65
2021/09/13 02:21:18;;;;;;;13.90;12.45;;;;;;;24.36;47.21;99492.14;1766436;80;21091;-64
2021/09/13 02:23:45;;;;;;;14.93;13.43;;;;;;;24.36;47.17;99489.42;1767307;80;21267;-63
2021/09/13 02:26:15;;;;;;;13.25;11.95;;;;;;;24.34;47.16;99490.23;1764388;80;21082;-63
2021/09/13 02:28:41;;;;;;;18.57;12.90;;;;;;;24.34;47.03;99492.95;1748841;80;21534;-63
2021/09/13 02:31:08;;;;;;;14.10;12.50;;;;;;;24.33;47.01;99498.09;1767277;80;21018;-64
2021/09/13 02:33:34;;;;;;;13.93;11.53;;;;;;;24.31;46.96;99498.34;1770800;79;21003;-63
2021/09/13 02:36:02;;;;;;;16.17;11.97;;;;;;;24.29;46.90;99499.70;1752387;80;21561;-63
2021/09/13 02:38:30;;;;;;;14.75;13.15;;;;;;;24.28;46.82;99493.98;1756947;79;21566;-65
2021/09/13 02:40:58;;;;;;;13.13;11.40;;;;;;;24.26;46.78;99495.63;1761087;80;21808;-65
2021/09/13 02:43:25;;;;;;;14.30;12.55;;;;;;;24.25;46.71;99496.69;1748395;80;21054;-64
2021/09/13 02:45:55;;;;;;;13.32;11.97;;;;;;;24.26;46.70;99497.50;1717869;82;21145;-64
2021/09/13 02:48:22;;;;;;;14.50;12.28;;;;;;;24.25;46.74;99495.88;1754299;80;21069;-65
2021/09/13 02:50:49;;;;;;;14.15;12.65;;;;;;;24.23;46.74;99502.93;1765051;79;21101;-65
2021/09/13 02:53:16;;;;;;;13.15;11.83;;;;;;;24.24;46.63;99496.95;1750981;80;21224;-64
2021/09/13 02:55:42;;;;;;;15.93;12.53;;;;;;;24.23;46.63;99491.27;1731542;82;20990;-65
2021/09/13 02:58:12;;;;;;;14.10;12.60;;;;;;;24.23;46.61;99487.19;1751637;80;21089;-64
2021/09/13 03:00:39;;;;;;;14.58;12.23;;;;;;;24.23;46.65;99492.07;1762033;80;21018;-66
2021/09/13 03:03:06;;;;;;;13.72;12.37;;;;;;;24.23;46.51;99493.42;1732634;82;21105;-66
2021/09/13 03:05:32;;;;;;;22.42;19.98;;;;;;;24.23;46.45;99492.07;1750973;80;21112;-65
2021/09/13 03:08:02;;;;;;;16.95;15.13;;;;;;;24.22;46.44;99494.53;1768699;80;21063;-65
2021/09/13 03:10:29;;;;;;;14.98;13.28;;;;;;;24.23;46.41;99492.62;1769043;80;21553;-65
2021/09/13 03:12:56;;;;;;;15.10;11.85;;;;;;;24.23;46.36;99495.33;1772231;80;21055;-65
2021/09/13 03:15:25;;;;;;;13.43;12.18;;;;;;;24.22;46.29;99491.81;1748545;80;21006;-64
2021/09/13 03:17:53;;;;;;;13.62;12.23;;;;;;;24.22;46.30;99493.69;1763315;80;22321;-65
2021/09/13 03:20:20;;;;;;;15.43;12.73;;;;;;;24.22;46.14;99490.97;1759802;80;21106;-65
2021/09/13 03:22:46;;;;;;;14.45;12.85;;;;;;;24.22;46.20;99495.05;1760178;79;21073;-65
2021/09/13 03:25:13;;;;;;;15.28;12.35;;;;;;;24.22;46.13;99495.05;1778826;80;21220;-65
2021/09/13 03:27:40;;;;;;;14.90;13.18;;;;;;;24.21;46.10;99492.88;1763781;80;21109;-64
2021/09/13 03:30:09;;;;;;;14.40;12.73;;;;;;;24.21;46.13;99498.30;1779252;80;22131;-64
2021/09/13 03:32:35;;;;;;;13.60;12.20;;;;;;;24.21;46.02;99496.14;1768752;80;21029;-65
2021/09/13 03:35:02;;;;;;;15.30;12.13;;;;;;;24.21;46.01;99498.85;1762508;79;21077;-65
2021/09/13 03:37:30;;;;;;;13.85;12.35;;;;;;;24.20;46.00;99493.14;1771564;80;21017;-65
2021/09/13 03:39:57;;;;;;;13.90;12.33;;;;;;;24.20;46.01;99491.78;1782190;79;21010;-65
2021/09/13 03:42:24;;;;;;;16.07;12.33;;;;;;;24.16;46.03;99490.13;1761916;80;21042;-64
2021/09/13 03:44:51;;;;;;;15.30;12.20;;;;;;;24.19;46.01;99496.95;1763012;80;21006;-64
2021/09/13 03:47:21;;;;;;;14.40;12.65;;;;;;;24.17;45.97;99490.97;1717402;82;21093;-64
2021/09/13 03:49:50;;;;;;;14.85;12.82;;;;;;;24.16;45.98;99491.48;1782113;80;21545;-64
2021/09/13 03:52:16;;;;;;;12.45;11.18;;;;;;;24.16;46.05;99492.84;1756048;80;21066;-65
2021/09/13 03:54:43;;;;;;;14.35;12.50;;;;;;;24.16;46.10;99483.89;1760234;80;21033;-65
2021/09/13 03:57:10;;;;;;;13.55;11.80;;;;;;;24.15;46.06;99491.22;1770087;79;21707;-64
2021/09/13 03:59:36;;;;;;;15.35;12.07;;;;;;;24.14;46.06;99494.48;1745815;80;21049;-65
2021/09/13 04:02:03;;;;;;;13.75;11.65;;;;;;;24.14;46.04;99490.42;1707170;82;21008;-64
2021/09/13 04:04:32;;;;;;;13.58;12.10;;;;;;;24.16;45.97;99490.67;1710230;83;21093;-64
2021/09/13 04:07:15;;;;;;;12.60;11.25;;;;;;;24.14;45.98;99487.70;1762923;80;20995;-64
2021/09/13 04:09:55;;;;;;;14.58;11.57;;;;;;;24.17;45.97;99496.39;1754447;80;21013;-64
2021/09/13 04:12:37;;;;;;;14.75;11.88;;;;;;;24.17;45.96;99488.25;1651106;85;21041;-64
2021/09/13 04:15:08;;;;;;;15.00;11.70;;;;;;;24.14;46.04;99491.77;1652851;85;21069;-62
2021/09/13 04:17:54;;;;;;;13.28;10.72;;;;;;;24.13;46.05;99490.13;1710664;80;21022;-63
2021/09/13 04:20:24;;;;;;;12.58;11.25;;;;;;;24.14;46.07;99493.13;1755198;80;21046;-64
2021/09/13 04:22:55;;;;;;;13.95;12.37;;;;;;;24.14;46.13;99494.48;1717754;80;21084;-64
2021/09/13 04:25:24;;;;;;;14.40;11.95;;;;;;;24.15;46.13;99499.36;1757833;80;21030;-64
2021/09/13 04:27:52;;;;;;;12.95;11.55;;;;;;;24.17;46.05;99502.62;1758641;80;21120;-66
2021/09/13 04:30:23;;;;;;;13.10;11.73;;;;;;;24.17;46.11;99498.56;1715569;82;21095;-64
2021/09/13 04:33:07;;;;;;;12.53;11.22;;;;;;;24.19;46.07;99502.38;1761788;79;21140;-65
2021/09/13 04:35:35;;;;;;;14.38;11.22;;;;;;;24.20;46.07;99506.70;1752778;80;21054;-64
2021/09/13 04:38:18;;;;;;;11.75;10.60;;;;;;;24.20;46.06;99502.63;1771110;80;21003;-64
2021/09/13 04:41:02;;;;;;;;;;;;;;;24.20;46.07;99503.44;1775061;80;21521;-65
2021/09/13 04:43:30;;;;;;;13.32;12.03;;;;;;;24.20;46.08;99500.73;1715773;80;20191;-65
2021/09/13 04:46:14;;;;;;;12.28;10.98;;;;;;;24.16;46.17;99496.10;1699285;83;21152;-65
2021/09/13 04:48:40;;;;;;;12.80;11.55;;;;;;;24.17;46.21;99503.18;1743649;80;21046;-65
2021/09/13 04:51:09;;;;;;;13.68;11.73;;;;;;;24.19;46.17;99496.95;1696859;82;21487;-65
2021/09/13 04:53:40;;;;;;;14.38;11.57;;;;;;;24.20;46.12;99500.73;1709326;83;21011;-66
2021/09/13 04:56:09;;;;;;;13.65;11.25;;;;;;;24.21;46.22;99501.02;1736511;82;22018;-64
2021/09/13 04:58:37;;;;;;;12.82;11.38;;;;;;;24.23;46.30;99501.57;1715730;82;21052;-64
2021/09/13 05:01:08;;;;;;;12.23;10.85;;;;;;;24.25;46.42;99498.59;1774845;80;21077;-65
2021/09/13 05:03:35;;;;;;;12.45;11.12;;;;;;;24.27;46.52;99497.24;1772069;80;21533;-65
2021/09/13 05:06:03;;;;;;;18.20;13.03;;;;;;;24.28;46.48;99493.46;1761371;79;21010;-65
2021/09/13 05:08:30;;;;;;;14.98;11.48;;;;;;;24.31;46.46;99492.11;1714428;83;21025;-64
2021/09/13 05:10:58;;;;;;;14.70;10.95;;;;;;;24.32;46.43;99493.20;1771629;79;21212;-64
2021/09/13 05:13:25;;;;;;;12.90;10.70;;;;;;;24.33;46.32;99496.18;1773275;80;21521;-64
2021/09/13 05:15:51;;;;;;;16.15;11.73;;;;;;;24.36;46.38;99495.38;1760168;80;21029;-64
2021/09/13 05:18:18;;;;;;;15.83;11.40;;;;;;;24.38;46.47;99498.63;1765014;80;22178;-64
2021/09/13 05:20:44;;;;;;;16.80;12.40;;;;;;;24.40;46.46;99491.07;1781123;79;21050;-63
2021/09/13 05:23:12;;;;;;;17.52;12.58;;;;;;;24.42;46.47;99495.14;1765065;79;21600;-65
2021/09/13 05:25:39;;;;;;;14.78;11.80;;;;;;;24.43;46.62;99491.33;1753333;80;21578;-65
2021/09/13 05:28:07;;;;;;;15.30;12.43;;;;;;;24.45;46.74;99491.07;1756900;80;21081;-67
2021/09/13 05:30:34;;;;;;;16.90;12.45;;;;;;;24.47;46.87;99487.03;1733457;80;21057;-65
2021/09/13 05:33:03;;;;;;;15.38;12.28;;;;;;;24.49;46.82;99480.79;1772656;80;21037;-67
2021/09/13 05:35:29;;;;;;;19.25;12.58;;;;;;;24.51;46.76;99481.89;1749712;80;21982;-65
2021/09/13 05:37:58;;;;;;;15.43;11.20;;;;;;;24.52;46.63;99483.53;1759111;80;20998;-65
2021/09/13 05:40:24;;;;;;;13.30;11.63;;;;;;;24.53;46.52;99487.34;1768412;79;21596;-65
2021/09/13 05:42:52;;;;;;;17.20;11.97;;;;;;;24.56;46.48;99486.53;1766068;80;21070;-64
2021/09/13 05:45:19;;;;;;;14.05;12.28;;;;;;;24.57;46.37;99488.16;1764687;80;21047;-68
2021/09/13 05:47:46;;;;;;;12.95;11.57;;;;;;;24.58;46.31;99477.03;1754667;80;21182;-65
2021/09/13 05:50:13;;;;;;;17.65;11.60;;;;;;;24.59;46.26;99480.03;1767116;80;21028;-65
2021/09/13 05:52:40;;;;;;;13.40;11.18;;;;;;;24.62;46.12;99484.91;1757416;80;21509;-65
2021/09/13 05:55:08;;;;;;;14.55;11.85;;;;;;;24.63;46.05;99481.67;1749978;80;21502;-65
2021/09/13 05:57:37;;;;;;;13.90;11.60;;;;;;;24.66;46.10;99485.20;1783236;79;21065;-64
2021/09/13 06:00:07;;;;;;;13.08;11.03;;;;;;;24.67;45.97;99481.41;1773926;80;21088;-65
2021/09/13 06:02:36;;;;;;;13.03;11.05;;;;;;;24.69;45.76;99480.61;1761907;80;21581;-65
2021/09/13 06:05:05;;;;;;;13.00;10.43;;;;;;;24.69;45.70;99482.77;1773035;80;21078;-64
2021/09/13 06:07:33;;;;;;;16.17;11.40;;;;;;;24.72;45.75;99482.25;1767983;80;21069;-65
2021/09/13 06:10:01;;;;;;;15.72;11.03;;;;;;;24.73;45.57;99486.58;1773297;80;21489;-64
2021/09/13 06:12:29;;;;;;;14.33;11.50;;;;;;;24.75;45.41;99484.16;1774122;80;21108;-63
2021/09/13 06:14:58;;;;;;;14.15;11.03;;;;;;;24.77;45.25;99482.79;1775101;79;21128;-63
2021/09/13 06:17:26;;;;;;;12.55;11.33;;;;;;;24.78;44.96;99486.31;1763538;80;21069;-64
2021/09/13 06:19:54;;;;;;;12.28;10.98;;;;;;;24.79;44.81;99481.98;1764619;80;21623;-63
2021/09/13 06:22:20;;;;;;;19.95;11.78;;;;;;;24.79;44.81;99479.81;1761324;80;21098;-67
2021/09/13 06:24:48;;;;;;;12.82;10.18;;;;;;;24.81;44.50;99485.79;1756119;80;21136;-63
2021/09/13 06:27:15;;;;;;;14.05;11.20;;;;;;;24.82;44.80;99484.69;1769165;80;21069;-65
2021/09/13 06:29:41;;;;;;;13.83;11.22;;;;;;;24.84;44.55;99482.52;1758499;80;21557;-64
2021/09/13 06:32:08;;;;;;;11.12;10.03;;;;;;;24.84;44.04;99479.28;1769608;79;21005;-64
2021/09/13 06:34:35;;;;;;;15.13;11.30;;;;;;;24.84;43.89;99482.00;1773973;80;21077;-68
2021/09/13 06:37:03;;;;;;;15.60;12.53;;;;;;;24.84;43.83;99484.72;1768749;80;21553;-65
2021/09/13 06:39:30;;;;;;;19.17;13.32;;;;;;;24.85;44.03;99490.95;1763911;80;21054;-65
2021/09/13 06:41:57;;;;;;;16.35;12.75;;;;;;;24.86;44.11;99490.69;1756518;80;21542;-68
2021/09/13 06:44:26;;;;;;;16.70;11.43;;;;;;;24.88;43.96;99490.43;1768068;80;21100;-71
2021/09/13 06:47:04;;;;;;;13.35;10.93;;;;;;;24.88;43.79;99489.88;1761932;79;21069;-71
2021/09/13 06:49:32;;;;;;;16.57;11.43;;;;;;;24.88;43.83;99487.16;1715028;82;21879;-70
2021/09/13 06:51:59;;;;;;;15.05;10.18;;;;;;;24.90;43.77;99489.63;1770449;79;21081;-70
2021/09/13 06:54:26;;;;;;;13.83;9.90;;;;;;;24.90;43.40;99489.06;1771055;79;21065;-71
2021/09/13 06:56:55;;;;;;;15.28;10.53;;;;;;;24.91;43.28;99490.69;1768308;79;21069;-70
2021/09/13 06:59:22;;;;;;;14.65;11.38;;;;;;;24.92;43.61;99495.05;1771863;79;21003;-75
2021/09/13 07:01:49;;;;;;;14.63;10.58;;;;;;;24.96;43.79;99495.33;1771892;79;21508;-72
2021/09/13 07:04:16;;;;;;;13.72;10.90;;;;;;;24.96;43.29;99495.33;1771831;79;21548;-75
2021/09/13 07:06:42;;;;;;;13.60;10.20;;;;;;;24.96;42.86;99492.61;1749129;79;21546;-74
2021/09/13 07:09:09;;;;;;;17.20;10.48;;;;;;;24.96;43.00;99485.02;1773324;79;21043;-73
2021/09/13 07:11:38;;;;;;;12.45;10.03;;;;;;;24.98;43.02;99492.34;1779115;79;21069;-73
2021/09/13 07:14:06;;;;;;;11.20;10.03;;;;;;;24.97;42.97;99493.42;1771332;79;21050;-74
2021/09/13 07:16:34;;;;;;;12.47;10.03;;;;;;;24.93;42.87;99489.87;1764158;80;21065;-73
2021/09/13 07:19:01;;;;;;;12.18;10.20;;;;;;;24.95;42.75;99495.59;1779759;79;21014;-71
2021/09/13 07:21:29;;;;;;;12.30;9.83;;;;;;;24.95;43.10;99490.97;1775986;79;21070;-71
2021/09/13 07:23:55;;;;;;;11.75;10.53;;;;;;;24.97;43.10;99495.59;1774560;79;21151;-72
2021/09/13 07:26:22;;;;;;;15.10;10.28;;;;;;;24.97;42.93;99492.87;1770491;79;21498;-73
2021/09/13 07:28:49;;;;;;;13.93;10.68;;;;;;;24.97;42.84;99492.06;1780495;79;21045;-72
2021/09/13 07:31:15;;;;;;;14.93;10.25;;;;;;;24.96;42.86;99498.59;1768674;79;22113;-72
2021/09/13 07:33:42;;;;;;;13.28;10.08;;;;;;;24.95;42.80;99498.31;1762650;79;21536;-71
2021/09/13 07:36:08;;;;;;;12.07;9.48;;;;;;;24.95;42.79;99494.23;1777777;79;21045;-72
2021/09/13 07:38:35;;;;;;;12.13;10.00;;;;;;;24.95;42.80;99501.02;1771211;79;21136;-71
2021/09/13 07:41:02;;;;;;;11.12;9.60;;;;;;;24.96;42.84;99495.88;1776526;79;21105;-72
2021/09/13 07:43:28;;;;;;;10.50;9.20;;;;;;;24.97;43.20;99499.66;1770858;80;21110;-70
2021/09/13 07:45:55;;;;;;;15.00;9.73;;;;;;;25.02;43.27;99501.59;1770294;79;21077;-72
2021/09/13 07:48:22;;;;;;;11.35;9.20;;;;;;;25.05;42.79;99502.39;1777531;79;21602;-69
2021/09/13 07:50:50;;;;;;;13.60;10.35;;;;;;;25.05;42.47;99502.39;1741334;80;21117;-69
2021/09/13 07:53:17;;;;;;;12.33;9.93;;;;;;;25.07;42.27;99502.94;1701854;83;21116;-71
2021/09/13 07:55:43;;;;;;;11.93;9.30;;;;;;;25.07;42.09;99503.77;1720064;82;21035;-65
2021/09/13 07:58:10;;;;;;;12.35;9.53;;;;;;;25.08;42.15;99503.23;1712172;82;21541;-68
2021/09/13 08:00:36;;;;;;;10.90;9.50;;;;;;;25.09;42.02;99506.20;1709875;82;21069;-71
2021/09/13 08:03:03;;;;;;;14.90;10.38;;;;;;;25.11;42.19;99510.82;1719722;82;21212;-71
2021/09/13 08:05:31;;;;;;;11.57;9.45;;;;;;;25.12;42.29;99509.75;1738134;80;21030;-70
2021/09/13 08:07:58;;;;;;;12.98;9.23;;;;;;;25.15;42.41;99514.66;1734561;82;21101;-69
2021/09/13 08:10:24;;;;;;;10.85;9.75;;;;;;;25.18;41.98;99505.95;1734785;82;21537;-68
2021/09/13 08:12:51;;;;;;;12.65;9.28;;;;;;;25.20;41.77;99501.60;1730570;81;21068;-69
2021/09/13 08:15:17;;;;;;;12.50;9.65;;;;;;;25.20;41.54;99500.24;1733546;82;21086;-68
2021/09/13 08:17:45;;;;;;;14.05;9.80;;;;;;;25.21;41.57;99496.45;1736983;82;21059;-68
2021/09/13 08:20:12;;;;;;;10.63;9.53;;;;;;;25.23;41.64;99499.20;1725868;82;21047;-69
2021/09/13 08:22:40;;;;;;;10.03;9.03;;;;;;;25.25;41.56;99498.37;1730868;82;21145;-70
2021/09/13 08:25:09;;;;;;;11.97;10.00;;;;;;;25.28;41.74;99494.30;1726855;82;21653;-69
2021/09/13 08:27:54;;;;;;;11.03;10.00;;;;;;;25.31;41.54;99498.64;1722800;82;21119;-68
2021/09/13 08:30:21;;;;;;;10.40;9.15;;;;;;;25.35;41.40;99501.64;1773557;79;21089;-66
2021/09/13 08:32:47;;;;;;;10.82;9.28;;;;;;;25.38;41.17;99496.20;1770948;79;21076;-71
2021/09/13 08:35:14;;;;;;;10.70;9.60;;;;;;;25.41;41.13;99501.10;1774248;79;21077;-68
2021/09/13 08:37:40;;;;;;;13.40;10.43;;;;;;;25.45;41.61;99494.84;1774925;79;21053;-67
2021/09/13 08:40:08;;;;;;;12.60;10.85;;;;;;;25.50;41.24;99492.67;1772208;79;22483;-68
2021/09/13 08:42:47;;;;;;;14.28;9.70;;;;;;;25.54;41.24;99492.40;1772910;79;21046;-69
2021/09/13 08:45:19;;;;;;;14.45;10.55;;;;;;;25.59;41.24;99491.02;1777341;79;21089;-68
2021/09/13 08:48:00;;;;;;;12.93;10.43;;;;;;;25.63;41.11;99483.13;1714484;83;21062;-66
2021/09/13 08:51:17;;;;;;;13.18;9.80;;;;;;;25.67;40.93;99486.41;1755597;80;21009;-67
2021/09/13 08:52:50;;;;;;;11.68;9.40;;;;;;;25.74;40.83;99489.38;1733552;80;23517;-67
2021/09/13 08:55:16;;;;;;;10.55;9.45;;;;;;;25.79;40.71;99488.02;1741687;80;21019;-67
2021/09/13 08:57:43;;;;;;;13.03;10.25;;;;;;;25.83;40.67;99483.11;1771661;80;21506;-67
2021/09/13 09:00:11;;;;;;;15.35;10.85;;;;;;;25.88;40.94;99481.74;1773162;79;21062;-69
2021/09/13 09:02:38;;;;;;;11.20;10.10;;;;;;;25.95;40.80;99486.91;1760754;80;21038;-69
2021/09/13 09:05:06;;;;;;;11.70;10.58;;;;;;;25.99;40.42;99475.74;1767248;79;21093;-68
2021/09/13 09:07:52;;;;;;;12.13;10.53;;;;;;;26.06;40.19;99482.27;1762880;80;21017;-69
2021/09/13 09:10:25;;;;;;;11.88;9.78;;;;;;;26.10;40.19;99476.54;1769654;79;21006;-69
2021/09/13 09:13:01;;;;;;;11.20;9.20;;;;;;;26.16;40.20;99474.06;1762568;80;21069;-67
2021/09/13 09:15:30;;;;;;;10.78;9.58;;;;;;;26.21;39.89;99471.33;1776803;79;21470;-71
2021/09/13 09:17:59;;;;;;;12.70;9.78;;;;;;;26.27;40.06;99473.48;1779743;79;21143;-68
2021/09/13 09:20:26;;;;;;;11.03;9.90;;;;;;;26.33;39.90;99471.01;1777772;79;21053;-70
2021/09/13 09:23:03;;;;;;;11.10;9.28;;;;;;;26.38;39.96;99476.41;1774208;80;21075;-70
2021/09/13 09:25:33;;;;;;;10.68;9.18;;;;;;;26.45;39.14;99476.13;1697228;83;21051;-69
2021/09/13 09:28:06;;;;;;;11.80;9.65;;;;;;;26.51;38.58;99470.11;1701487;83;21050;-69
2021/09/13 09:30:45;;;;;;;10.50;9.13;;;;;;;26.57;38.35;99471.16;1759235;80;24855;-70
2021/09/13 09:33:19;;;;;;;10.80;9.65;;;;;;;26.63;38.55;99463.80;1767669;80;21026;-68
2021/09/13 09:35:57;;;;;;;12.33;10.43;;;;;;;26.68;38.91;99456.41;1760021;80;21053;-69
2021/09/13 09:38:37;;;;;;;14.58;9.93;;;;;;;26.75;38.53;99458.81;1763005;80;21145;-69
2021/09/13 09:41:15;;;;;;;13.05;10.58;;;;;;;26.81;38.53;99463.68;1760608;80;21065;-70
2021/09/13 09:44:01;;;;;;;14.05;9.43;;;;;;;26.88;38.22;99461.46;1753056;80;21213;-69
2021/09/13 09:46:39;;;;;;;11.08;10.05;;;;;;;26.95;38.33;99460.61;1767982;80;21046;-70
2021/09/13 09:49:17;;;;;;;12.30;11.00;;;;;;;27.02;38.39;99465.72;1752712;80;21085;-69
2021/09/13 09:51:51;;;;;;;11.63;9.50;;;;;;;27.07;38.43;99460.24;1774250;79;21034;-71
2021/09/13 09:54:25;;;;;;;11.48;10.28;;;;;;;27.14;38.46;99449.00;1766379;80;21074;-69
2021/09/13 09:57:07;;;;;;;11.43;9.85;;;;;;;27.19;38.90;99455.23;1766863;80;21098;-70
2021/09/13 09:59:41;;;;;;;12.28;10.48;;;;;;;27.24;39.15;99459.84;1761951;80;21057;-74
2021/09/13 10:02:18;;;;;;;11.75;9.55;;;;;;;27.26;39.39;99461.20;1762059;79;21092;-74
2021/09/13 10:04:52;;;;;;;13.43;10.28;;;;;;;27.31;39.48;99454.08;1769144;80;21097;-74
2021/09/13 10:07:19;;;;;;;12.05;10.28;;;;;;;27.32;39.21;99456.52;1763486;80;21054;-71
2021/09/13 10:09:47;;;;;;;14.68;10.32;;;;;;;27.37;39.30;99440.66;1759137;80;21045;-73
2021/09/13 10:12:15;;;;;;;10.43;9.40;;;;;;;27.42;39.09;99448.23;1758561;80;21621;-74
2021/09/13 10:14:42;;;;;;;11.50;10.25;;;;;;;27.47;39.30;99444.67;1723287;82;21109;-70
2021/09/13 10:17:09;;;;;;;13.53;10.48;;;;;;;27.51;38.62;99443.55;1714658;82;21054;-70
2021/09/13 10:19:36;;;;;;;13.75;11.22;;;;;;;27.58;38.07;99440.75;1706520;82;21062;-69
2021/09/13 10:22:03;;;;;;;11.28;10.15;;;;;;;27.69;37.60;99442.00;1768031;80;21139;-69
2021/09/13 10:24:31;;;;;;;11.03;10.00;;;;;;;27.77;37.61;99444.09;1726705;82;21100;-69
2021/09/13 10:27:11;;;;;;;11.70;10.18;;;;;;;27.84;37.98;99433.64;1761203;79;21026;-72
2021/09/13 10:29:38;;;;;;;10.18;9.15;;;;;;;27.89;38.08;99436.33;1779720;79;21046;-67
2021/09/13 10:32:14;;;;;;;11.35;10.25;;;;;;;27.94;37.73;99428.09;1777130;80;21036;-71
2021/09/13 10:34:49;;;;;;;12.68;10.85;;;;;;;28.00;38.09;99427.48;1777711;79;21577;-72
2021/09/13 10:37:23;;;;;;;12.43;11.05;;;;;;;28.04;37.00;99427.16;1764703;79;21057;-70
2021/09/13 10:40:18;;;;;;;12.23;9.48;;;;;;;28.12;36.82;99424.33;1700629;82;21700;-71
2021/09/13 10:42:48;;;;;;;13.03;9.55;;;;;;;28.21;36.27;99426.12;1772994;80;21033;-72
2021/09/13 10:45:29;;;;;;;12.28;9.50;;;;;;;28.32;36.58;99425.45;1778516;79;21077;-72
2021/09/13 10:48:03;;;;;;;13.83;10.38;;;;;;;28.38;36.45;99421.53;1772434;79;21524;-69
2021/09/13 10:50:45;;;;;;;11.28;10.15;;;;;;;28.44;36.13;99425.01;1772708;79;21029;-70
2021/09/13 10:53:29;;;;;;;12.45;10.20;;;;;;;28.49;36.02;99417.28;1765885;80;21014;-72
2021/09/13 10:56:03;;;;;;;9.70;8.70;;;;;;;28.55;35.41;99415.59;1777203;80;21581;-70
2021/09/13 10:58:53;;;;;;;10.43;9.33;;;;;;;28.64;35.70;99414.36;1740549;80;21604;-70
2021/09/13 11:01:24;;;;;;;10.08;9.05;;;;;;;28.70;36.27;99414.53;1755200;80;21030;-76
2021/09/13 11:04:05;;;;;;;12.30;10.48;;;;;;;28.75;36.76;99403.54;1769044;79;21146;-78
2021/09/13 11:06:39;;;;;;;19.98;10.70;;;;;;;28.77;37.08;99400.52;1762351;79;21029;-78
2021/09/13 11:09:14;;;;;;;19.70;11.03;;;;;;;28.77;37.42;99405.42;1756062;80;21037;-77
2021/09/13 11:11:46;;;;;;;18.43;10.60;;;;;;;28.78;37.65;99399.39;1760511;80;21089;-76
2021/09/13 11:14:22;;;;;;;20.50;10.88;;;;;;;28.82;36.98;99410.01;1764600;79;21404;-77
2021/09/13 11:16:54;;;;;;;19.82;12.15;;;;;;;28.89;37.07;99394.58;1776052;79;21042;-76
2021/09/13 11:19:22;;;;;;;21.85;12.68;;;;;;;28.92;37.46;99394.00;1714064;82;21064;-74
2021/09/13 11:21:56;;;;;;;18.32;11.68;;;;;;;28.93;37.68;99386.03;1729662;81;21213;-80
2021/09/13 11:24:34;;;;;;;16.00;11.20;;;;;;;28.96;37.76;99393.66;1698666;83;21621;-74
2021/09/13 11:27:12;;;;;;;19.05;11.65;;;;;;;28.99;37.70;99382.10;1758466;80;21122;-74
2021/09/13 11:29:43;;;;;;;12.53;10.28;;;;;;;29.05;37.92;99387.73;1768287;80;21061;-75
2021/09/13 11:32:15;;;;;;;12.15;10.03;;;;;;;29.09;37.93;99391.52;1778298;80;21053;-78